sensor_id;sensor_type;location;lat;lon;timestamp;P1;durP1;ratioP1;P2;durP2;ratioP2
56285;SDS011;42191;47.562;9.686;2023-04-23T00:02:09;36.47;;;34.00;;
56285;SDS011;42191;47.562;9.686;2023-04-23T00:04:36;38.42;;;35.75;;
56285;SDS011;42191;47.562;9.686;2023-04-23T00:07:04;34.95;;;32.65;;
56285;SDS011;42191;47.562;9.686;2023-04-23T00:09:30;35.65;;;33.35;;
56285;SDS011;42191;47.562;9.686;2023-04-23T00:11:58;33.75;;;31.35;;
56285;SDS011;42191;47.562;9.686;2023-04-23T00:14:26;36.50;;;34.10;;
56285;SDS011;42191;47.562;9.686;2023-04-23T00:16:52;36.80;;;34.35;;
56285;SDS011;42191;47.562;9.686;2023-04-23T00:19:18;34.17;;;31.98;;
56285;SDS011;42191;47.562;9.686;2023-04-23T00:21:45;35.75;;;33.45;;
56285;SDS011;42191;47.562;9.686;2023-04-23T00:24:11;35.90;;;33.50;;
56285;SDS011;42191;47.562;9.686;2023-04-23T00:26:37;35.92;;;33.63;;
56285;SDS011;42191;47.562;9.686;2023-04-23T00:29:03;35.95;;;33.55;;
56285;SDS011;42191;47.562;9.686;2023-04-23T00:31:29;37.13;;;34.65;;
56285;SDS011;42191;47.562;9.686;2023-04-23T00:33:55;37.70;;;35.28;;
56285;SDS011;42191;47.562;9.686;2023-04-23T00:36:21;36.90;;;34.38;;
56285;SDS011;42191;47.562;9.686;2023-04-23T00:38:47;35.72;;;33.40;;
56285;SDS011;42191;47.562;9.686;2023-04-23T00:41:13;34.67;;;31.95;;
56285;SDS011;42191;47.562;9.686;2023-04-23T00:43:40;38.30;;;35.50;;
56285;SDS011;42191;47.562;9.686;2023-04-23T00:46:07;36.80;;;34.42;;
56285;SDS011;42191;47.562;9.686;2023-04-23T00:48:33;36.65;;;34.35;;
56285;SDS011;42191;47.562;9.686;2023-04-23T00:51:03;36.97;;;34.60;;
56285;SDS011;42191;47.562;9.686;2023-04-23T00:53:31;36.33;;;34.10;;
56285;SDS011;42191;47.562;9.686;2023-04-23T00:55:57;35.63;;;33.30;;
56285;SDS011;42191;47.562;9.686;2023-04-23T00:58:26;36.90;;;34.45;;
56285;SDS011;42191;47.562;9.686;2023-04-23T01:00:53;35.92;;;33.55;;
56285;SDS011;42191;47.562;9.686;2023-04-23T01:03:20;36.60;;;34.20;;
56285;SDS011;42191;47.562;9.686;2023-04-23T01:05:48;36.40;;;34.08;;
56285;SDS011;42191;47.562;9.686;2023-04-23T01:08:15;37.10;;;34.72;;
56285;SDS011;42191;47.562;9.686;2023-04-23T01:10:42;36.53;;;34.20;;
56285;SDS011;42191;47.562;9.686;2023-04-23T01:13:10;36.72;;;34.33;;
56285;SDS011;42191;47.562;9.686;2023-04-23T01:15:37;37.78;;;35.38;;
56285;SDS011;42191;47.562;9.686;2023-04-23T01:18:03;35.67;;;33.42;;
56285;SDS011;42191;47.562;9.686;2023-04-23T01:20:32;36.90;;;34.47;;
56285;SDS011;42191;47.562;9.686;2023-04-23T01:22:59;35.92;;;33.70;;
56285;SDS011;42191;47.562;9.686;2023-04-23T01:25:28;36.25;;;33.75;;
56285;SDS011;42191;47.562;9.686;2023-04-23T01:27:55;36.30;;;33.90;;
56285;SDS011;42191;47.562;9.686;2023-04-23T01:30:23;35.40;;;33.13;;
56285;SDS011;42191;47.562;9.686;2023-04-23T01:32:51;37.17;;;34.67;;
56285;SDS011;42191;47.562;9.686;2023-04-23T01:35:21;37.20;;;34.80;;
56285;SDS011;42191;47.562;9.686;2023-04-23T01:37:48;36.72;;;34.33;;
56285;SDS011;42191;47.562;9.686;2023-04-23T01:40:16;35.33;;;33.03;;
56285;SDS011;42191;47.562;9.686;2023-04-23T01:42:43;33.80;;;31.70;;
56285;SDS011;42191;47.562;9.686;2023-04-23T01:45:09;36.67;;;34.33;;
56285;SDS011;42191;47.562;9.686;2023-04-23T01:47:35;36.58;;;34.17;;
56285;SDS011;42191;47.562;9.686;2023-04-23T01:50:01;35.60;;;33.30;;
56285;SDS011;42191;47.562;9.686;2023-04-23T01:52:29;34.88;;;32.47;;
56285;SDS011;42191;47.562;9.686;2023-04-23T01:54:55;37.47;;;35.00;;
56285;SDS011;42191;47.562;9.686;2023-04-23T01:57:21;35.42;;;33.13;;
56285;SDS011;42191;47.562;9.686;2023-04-23T01:59:51;37.00;;;34.40;;
56285;SDS011;42191;47.562;9.686;2023-04-23T02:02:38;35.85;;;33.58;;
56285;SDS011;42191;47.562;9.686;2023-04-23T02:05:15;36.20;;;33.90;;
56285;SDS011;42191;47.562;9.686;2023-04-23T02:07:43;35.95;;;33.65;;
56285;SDS011;42191;47.562;9.686;2023-04-23T02:10:10;36.90;;;34.58;;
56285;SDS011;42191;47.562;9.686;2023-04-23T02:12:37;34.70;;;32.50;;
56285;SDS011;42191;47.562;9.686;2023-04-23T02:15:04;37.17;;;34.63;;
56285;SDS011;42191;47.562;9.686;2023-04-23T02:17:31;35.05;;;32.75;;
56285;SDS011;42191;47.562;9.686;2023-04-23T02:19:57;34.67;;;32.47;;
56285;SDS011;42191;47.562;9.686;2023-04-23T02:22:24;37.30;;;34.90;;
56285;SDS011;42191;47.562;9.686;2023-04-23T02:24:51;38.60;;;36.00;;
56285;SDS011;42191;47.562;9.686;2023-04-23T02:27:17;38.75;;;36.22;;
56285;SDS011;42191;47.562;9.686;2023-04-23T02:29:43;36.67;;;34.20;;
56285;SDS011;42191;47.562;9.686;2023-04-23T02:32:10;36.55;;;34.13;;
56285;SDS011;42191;47.562;9.686;2023-04-23T02:34:36;36.55;;;34.20;;
56285;SDS011;42191;47.562;9.686;2023-04-23T02:37:02;37.63;;;35.03;;
56285;SDS011;42191;47.562;9.686;2023-04-23T02:39:29;37.75;;;35.22;;
56285;SDS011;42191;47.562;9.686;2023-04-23T02:41:56;35.78;;;33.58;;
56285;SDS011;42191;47.562;9.686;2023-04-23T02:44:22;36.67;;;34.33;;
56285;SDS011;42191;47.562;9.686;2023-04-23T02:46:49;35.33;;;33.03;;
56285;SDS011;42191;47.562;9.686;2023-04-23T02:49:16;35.65;;;33.38;;
56285;SDS011;42191;47.562;9.686;2023-04-23T02:51:44;36.95;;;34.55;;
56285;SDS011;42191;47.562;9.686;2023-04-23T02:54:10;36.00;;;33.72;;
56285;SDS011;42191;47.562;9.686;2023-04-23T02:56:37;36.58;;;34.17;;
56285;SDS011;42191;47.562;9.686;2023-04-23T02:59:04;37.75;;;35.35;;
56285;SDS011;42191;47.562;9.686;2023-04-23T03:01:30;37.35;;;34.95;;
56285;SDS011;42191;47.562;9.686;2023-04-23T03:03:57;38.25;;;35.75;;
56285;SDS011;42191;47.562;9.686;2023-04-23T03:06:23;36.15;;;33.75;;
56285;SDS011;42191;47.562;9.686;2023-04-23T03:08:49;36.45;;;33.80;;
56285;SDS011;42191;47.562;9.686;2023-04-23T03:11:15;36.47;;;34.20;;
56285;SDS011;42191;47.562;9.686;2023-04-23T03:13:41;38.10;;;35.60;;
56285;SDS011;42191;47.562;9.686;2023-04-23T03:16:07;36.28;;;33.97;;
56285;SDS011;42191;47.562;9.686;2023-04-23T03:18:34;38.38;;;35.88;;
56285;SDS011;42191;47.562;9.686;2023-04-23T03:21:00;37.13;;;34.72;;
56285;SDS011;42191;47.562;9.686;2023-04-23T03:23:26;35.75;;;33.50;;
56285;SDS011;42191;47.562;9.686;2023-04-23T03:25:52;38.33;;;35.92;;
56285;SDS011;42191;47.562;9.686;2023-04-23T03:28:18;36.38;;;34.08;;
56285;SDS011;42191;47.562;9.686;2023-04-23T03:30:44;38.17;;;35.78;;
56285;SDS011;42191;47.562;9.686;2023-04-23T03:33:10;36.47;;;33.92;;
56285;SDS011;42191;47.562;9.686;2023-04-23T03:35:36;36.42;;;34.13;;
56285;SDS011;42191;47.562;9.686;2023-04-23T03:38:02;35.75;;;33.45;;
56285;SDS011;42191;47.562;9.686;2023-04-23T03:40:29;34.85;;;32.53;;
56285;SDS011;42191;47.562;9.686;2023-04-23T03:42:55;36.97;;;34.58;;
56285;SDS011;42191;47.562;9.686;2023-04-23T03:45:22;37.10;;;34.70;;
56285;SDS011;42191;47.562;9.686;2023-04-23T03:47:48;37.28;;;34.95;;
56285;SDS011;42191;47.562;9.686;2023-04-23T03:50:14;35.30;;;33.10;;
56285;SDS011;42191;47.562;9.686;2023-04-23T03:52:41;34.85;;;32.65;;
56285;SDS011;42191;47.562;9.686;2023-04-23T03:55:07;35.63;;;33.42;;
56285;SDS011;42191;47.562;9.686;2023-04-23T03:57:34;37.20;;;34.80;;
56285;SDS011;42191;47.562;9.686;2023-04-23T04:00:01;37.00;;;34.70;;
56285;SDS011;42191;47.562;9.686;2023-04-23T04:02:28;36.17;;;33.88;;
56285;SDS011;42191;47.562;9.686;2023-04-23T04:04:54;36.55;;;34.25;;
56285;SDS011;42191;47.562;9.686;2023-04-23T04:07:20;34.55;;;32.30;;
56285;SDS011;42191;47.562;9.686;2023-04-23T04:09:46;36.00;;;33.75;;
56285;SDS011;42191;47.562;9.686;2023-04-23T04:12:13;39.92;;;37.15;;
56285;SDS011;42191;47.562;9.686;2023-04-23T04:14:40;39.40;;;36.80;;
56285;SDS011;42191;47.562;9.686;2023-04-23T04:17:07;38.58;;;36.00;;
56285;SDS011;42191;47.562;9.686;2023-04-23T04:19:33;36.03;;;33.72;;
56285;SDS011;42191;47.562;9.686;2023-04-23T04:21:59;35.08;;;32.90;;
56285;SDS011;42191;47.562;9.686;2023-04-23T04:24:27;37.80;;;35.40;;
56285;SDS011;42191;47.562;9.686;2023-04-23T04:26:56;35.53;;;33.35;;
56285;SDS011;42191;47.562;9.686;2023-04-23T04:29:24;36.22;;;34.03;;
56285;SDS011;42191;47.562;9.686;2023-04-23T04:31:52;35.38;;;33.00;;
56285;SDS011;42191;47.562;9.686;2023-04-23T04:34:19;34.92;;;32.72;;
56285;SDS011;42191;47.562;9.686;2023-04-23T04:36:45;35.72;;;33.53;;
56285;SDS011;42191;47.562;9.686;2023-04-23T04:39:11;36.33;;;34.13;;
56285;SDS011;42191;47.562;9.686;2023-04-23T04:41:38;35.83;;;33.53;;
56285;SDS011;42191;47.562;9.686;2023-04-23T04:44:05;35.38;;;33.17;;
56285;SDS011;42191;47.562;9.686;2023-04-23T04:46:32;36.33;;;34.13;;
56285;SDS011;42191;47.562;9.686;2023-04-23T04:49:08;34.00;;;31.90;;
56285;SDS011;42191;47.562;9.686;2023-04-23T04:51:37;35.22;;;32.88;;
56285;SDS011;42191;47.562;9.686;2023-04-23T04:54:05;36.97;;;34.67;;
56285;SDS011;42191;47.562;9.686;2023-04-23T04:56:35;35.88;;;33.67;;
56285;SDS011;42191;47.562;9.686;2023-04-23T04:59:01;35.47;;;33.28;;
56285;SDS011;42191;47.562;9.686;2023-04-23T05:01:28;34.42;;;32.33;;
56285;SDS011;42191;47.562;9.686;2023-04-23T05:03:55;35.38;;;33.08;;
56285;SDS011;42191;47.562;9.686;2023-04-23T05:06:21;32.83;;;30.83;;
56285;SDS011;42191;47.562;9.686;2023-04-23T05:08:47;35.78;;;33.58;;
56285;SDS011;42191;47.562;9.686;2023-04-23T05:11:15;36.45;;;34.15;;
56285;SDS011;42191;47.562;9.686;2023-04-23T05:13:42;35.65;;;33.50;;
56285;SDS011;42191;47.562;9.686;2023-04-23T05:16:09;35.45;;;33.25;;
56285;SDS011;42191;47.562;9.686;2023-04-23T05:18:36;34.40;;;32.33;;
56285;SDS011;42191;47.562;9.686;2023-04-23T05:21:02;35.70;;;33.50;;
56285;SDS011;42191;47.562;9.686;2023-04-23T05:23:29;35.90;;;33.63;;
56285;SDS011;42191;47.562;9.686;2023-04-23T05:25:55;37.20;;;34.90;;
56285;SDS011;42191;47.562;9.686;2023-04-23T05:28:22;35.30;;;33.08;;
56285;SDS011;42191;47.562;9.686;2023-04-23T05:30:49;35.53;;;33.38;;
56285;SDS011;42191;47.562;9.686;2023-04-23T05:33:15;33.40;;;31.40;;
56285;SDS011;42191;47.562;9.686;2023-04-23T05:35:41;35.78;;;33.38;;
56285;SDS011;42191;47.562;9.686;2023-04-23T05:38:07;32.97;;;30.92;;
56285;SDS011;42191;47.562;9.686;2023-04-23T05:40:34;35.25;;;33.15;;
56285;SDS011;42191;47.562;9.686;2023-04-23T05:43:00;34.88;;;32.78;;
56285;SDS011;42191;47.562;9.686;2023-04-23T05:45:27;34.58;;;32.38;;
56285;SDS011;42191;47.562;9.686;2023-04-23T05:47:53;34.17;;;31.98;;
56285;SDS011;42191;47.562;9.686;2023-04-23T05:50:19;36.67;;;34.38;;
56285;SDS011;42191;47.562;9.686;2023-04-23T05:52:46;36.00;;;33.80;;
56285;SDS011;42191;47.562;9.686;2023-04-23T05:55:12;37.30;;;35.00;;
56285;SDS011;42191;47.562;9.686;2023-04-23T05:57:42;37.85;;;35.55;;
56285;SDS011;42191;47.562;9.686;2023-04-23T06:00:08;33.72;;;31.65;;
56285;SDS011;42191;47.562;9.686;2023-04-23T06:02:38;34.53;;;32.22;;
56285;SDS011;42191;47.562;9.686;2023-04-23T06:05:05;36.42;;;34.22;;
56285;SDS011;42191;47.562;9.686;2023-04-23T06:07:31;34.53;;;32.42;;
56285;SDS011;42191;47.562;9.686;2023-04-23T06:09:58;34.97;;;32.65;;
56285;SDS011;42191;47.562;9.686;2023-04-23T06:12:24;38.10;;;35.40;;
56285;SDS011;42191;47.562;9.686;2023-04-23T06:14:53;39.08;;;36.17;;
56285;SDS011;42191;47.562;9.686;2023-04-23T06:17:19;37.60;;;34.92;;
56285;SDS011;42191;47.562;9.686;2023-04-23T06:19:45;38.78;;;36.10;;
56285;SDS011;42191;47.562;9.686;2023-04-23T06:22:11;40.40;;;37.38;;
56285;SDS011;42191;47.562;9.686;2023-04-23T06:24:37;39.08;;;36.33;;
56285;SDS011;42191;47.562;9.686;2023-04-23T06:27:04;37.53;;;34.92;;
56285;SDS011;42191;47.562;9.686;2023-04-23T06:29:30;37.50;;;35.00;;
56285;SDS011;42191;47.562;9.686;2023-04-23T06:31:56;36.78;;;34.42;;
56285;SDS011;42191;47.562;9.686;2023-04-23T06:34:25;36.60;;;34.30;;
56285;SDS011;42191;47.562;9.686;2023-04-23T06:36:51;34.80;;;32.67;;
56285;SDS011;42191;47.562;9.686;2023-04-23T06:39:18;34.30;;;32.17;;
56285;SDS011;42191;47.562;9.686;2023-04-23T06:41:44;34.38;;;32.28;;
56285;SDS011;42191;47.562;9.686;2023-04-23T06:44:10;35.28;;;33.08;;
56285;SDS011;42191;47.562;9.686;2023-04-23T06:46:36;35.03;;;32.90;;
56285;SDS011;42191;47.562;9.686;2023-04-23T06:49:02;32.65;;;30.65;;
56285;SDS011;42191;47.562;9.686;2023-04-23T06:51:28;34.35;;;32.25;;
56285;SDS011;42191;47.562;9.686;2023-04-23T06:53:56;34.40;;;32.30;;
56285;SDS011;42191;47.562;9.686;2023-04-23T06:56:22;36.60;;;34.40;;
56285;SDS011;42191;47.562;9.686;2023-04-23T06:58:50;33.35;;;31.35;;
56285;SDS011;42191;47.562;9.686;2023-04-23T07:01:16;33.85;;;31.85;;
56285;SDS011;42191;47.562;9.686;2023-04-23T07:03:43;34.20;;;32.15;;
56285;SDS011;42191;47.562;9.686;2023-04-23T07:06:13;34.92;;;32.83;;
56285;SDS011;42191;47.562;9.686;2023-04-23T07:08:40;34.95;;;32.85;;
56285;SDS011;42191;47.562;9.686;2023-04-23T07:11:07;34.65;;;32.55;;
56285;SDS011;42191;47.562;9.686;2023-04-23T07:13:34;35.35;;;33.15;;
56285;SDS011;42191;47.562;9.686;2023-04-23T07:16:00;33.45;;;31.35;;
56285;SDS011;42191;47.562;9.686;2023-04-23T07:18:26;33.55;;;31.55;;
56285;SDS011;42191;47.562;9.686;2023-04-23T07:20:53;34.10;;;32.00;;
56285;SDS011;42191;47.562;9.686;2023-04-23T07:23:19;33.15;;;31.15;;
56285;SDS011;42191;47.562;9.686;2023-04-23T07:25:45;32.00;;;30.05;;
56285;SDS011;42191;47.562;9.686;2023-04-23T07:28:11;33.72;;;31.65;;
56285;SDS011;42191;47.562;9.686;2023-04-23T07:30:37;34.42;;;32.22;;
56285;SDS011;42191;47.562;9.686;2023-04-23T07:33:03;34.45;;;32.45;;
56285;SDS011;42191;47.562;9.686;2023-04-23T07:35:29;34.65;;;32.55;;
56285;SDS011;42191;47.562;9.686;2023-04-23T07:37:55;33.90;;;31.58;;
56285;SDS011;42191;47.562;9.686;2023-04-23T07:40:22;31.77;;;29.88;;
56285;SDS011;42191;47.562;9.686;2023-04-23T07:42:49;35.08;;;32.97;;
56285;SDS011;42191;47.562;9.686;2023-04-23T07:45:16;33.88;;;31.88;;
56285;SDS011;42191;47.562;9.686;2023-04-23T07:47:43;32.92;;;30.92;;
56285;SDS011;42191;47.562;9.686;2023-04-23T07:50:10;33.05;;;31.05;;
56285;SDS011;42191;47.562;9.686;2023-04-23T07:52:36;32.47;;;30.48;;
56285;SDS011;42191;47.562;9.686;2023-04-23T07:55:03;33.80;;;31.77;;
56285;SDS011;42191;47.562;9.686;2023-04-23T07:57:30;32.67;;;30.67;;
56285;SDS011;42191;47.562;9.686;2023-04-23T07:59:56;31.95;;;30.05;;
56285;SDS011;42191;47.562;9.686;2023-04-23T08:02:22;30.60;;;28.80;;
56285;SDS011;42191;47.562;9.686;2023-04-23T08:04:50;30.85;;;29.05;;
56285;SDS011;42191;47.562;9.686;2023-04-23T08:07:17;32.65;;;30.75;;
56285;SDS011;42191;47.562;9.686;2023-04-23T08:09:43;29.95;;;28.17;;
56285;SDS011;42191;47.562;9.686;2023-04-23T08:12:09;31.80;;;29.90;;
56285;SDS011;42191;47.562;9.686;2023-04-23T08:14:36;31.30;;;29.50;;
56285;SDS011;42191;47.562;9.686;2023-04-23T08:17:02;30.52;;;28.73;;
56285;SDS011;42191;47.562;9.686;2023-04-23T08:19:28;31.50;;;29.60;;
56285;SDS011;42191;47.562;9.686;2023-04-23T08:21:57;31.88;;;29.98;;
56285;SDS011;42191;47.562;9.686;2023-04-23T08:24:24;32.03;;;30.13;;
56285;SDS011;42191;47.562;9.686;2023-04-23T08:26:51;31.73;;;29.80;;
56285;SDS011;42191;47.562;9.686;2023-04-23T08:29:17;30.73;;;28.92;;
56285;SDS011;42191;47.562;9.686;2023-04-23T08:31:43;32.10;;;30.23;;
56285;SDS011;42191;47.562;9.686;2023-04-23T08:34:09;31.90;;;30.02;;
56285;SDS011;42191;47.562;9.686;2023-04-23T08:36:36;32.10;;;30.20;;
56285;SDS011;42191;47.562;9.686;2023-04-23T08:39:02;30.50;;;28.70;;
56285;SDS011;42191;47.562;9.686;2023-04-23T08:41:31;31.67;;;29.88;;
56285;SDS011;42191;47.562;9.686;2023-04-23T08:44:11;30.10;;;28.23;;
56285;SDS011;42191;47.562;9.686;2023-04-23T08:46:46;31.52;;;29.73;;
56285;SDS011;42191;47.562;9.686;2023-04-23T08:49:13;31.40;;;29.55;;
56285;SDS011;42191;47.562;9.686;2023-04-23T08:51:52;31.00;;;29.13;;
56285;SDS011;42191;47.562;9.686;2023-04-23T08:54:26;30.57;;;28.73;;
56285;SDS011;42191;47.562;9.686;2023-04-23T08:56:55;31.73;;;29.83;;
56285;SDS011;42191;47.562;9.686;2023-04-23T08:59:23;31.95;;;29.90;;
56285;SDS011;42191;47.562;9.686;2023-04-23T09:01:50;31.67;;;29.77;;
56285;SDS011;42191;47.562;9.686;2023-04-23T09:04:17;32.40;;;30.40;;
56285;SDS011;42191;47.562;9.686;2023-04-23T09:06:44;29.55;;;27.83;;
56285;SDS011;42191;47.562;9.686;2023-04-23T09:09:12;30.05;;;28.27;;
56285;SDS011;42191;47.562;9.686;2023-04-23T09:11:41;31.00;;;29.00;;
56285;SDS011;42191;47.562;9.686;2023-04-23T09:14:08;30.17;;;28.40;;
56285;SDS011;42191;47.562;9.686;2023-04-23T09:16:34;29.83;;;28.05;;
56285;SDS011;42191;47.562;9.686;2023-04-23T09:19:01;31.20;;;29.40;;
56285;SDS011;42191;47.562;9.686;2023-04-23T09:21:27;32.15;;;30.25;;
56285;SDS011;42191;47.562;9.686;2023-04-23T09:23:53;31.55;;;29.60;;
56285;SDS011;42191;47.562;9.686;2023-04-23T09:26:20;32.28;;;30.27;;
56285;SDS011;42191;47.562;9.686;2023-04-23T09:28:49;30.98;;;29.08;;
56285;SDS011;42191;47.562;9.686;2023-04-23T09:31:22;33.05;;;31.05;;
56285;SDS011;42191;47.562;9.686;2023-04-23T09:33:51;30.65;;;28.85;;
56285;SDS011;42191;47.562;9.686;2023-04-23T09:36:22;31.70;;;29.80;;
56285;SDS011;42191;47.562;9.686;2023-04-23T09:38:48;33.22;;;31.25;;
56285;SDS011;42191;47.562;9.686;2023-04-23T09:43:48;30.38;;;28.58;;
56285;SDS011;42191;47.562;9.686;2023-04-23T09:46:16;29.55;;;27.77;;
56285;SDS011;42191;47.562;9.686;2023-04-23T09:48:42;32.65;;;30.60;;
56285;SDS011;42191;47.562;9.686;2023-04-23T09:51:08;29.67;;;27.90;;
56285;SDS011;42191;47.562;9.686;2023-04-23T09:53:39;31.30;;;29.50;;
56285;SDS011;42191;47.562;9.686;2023-04-23T09:56:07;31.55;;;29.65;;
56285;SDS011;42191;47.562;9.686;2023-04-23T09:58:33;30.90;;;29.10;;
56285;SDS011;42191;47.562;9.686;2023-04-23T10:01:07;31.40;;;29.50;;
56285;SDS011;42191;47.562;9.686;2023-04-23T10:03:33;31.20;;;29.23;;
56285;SDS011;42191;47.562;9.686;2023-04-23T10:05:59;31.33;;;29.42;;
56285;SDS011;42191;47.562;9.686;2023-04-23T10:08:26;29.98;;;28.15;;
56285;SDS011;42191;47.562;9.686;2023-04-23T10:10:52;31.08;;;29.17;;
56285;SDS011;42191;47.562;9.686;2023-04-23T10:13:18;32.58;;;30.67;;
56285;SDS011;42191;47.562;9.686;2023-04-23T10:15:45;32.50;;;30.50;;
56285;SDS011;42191;47.562;9.686;2023-04-23T10:18:13;33.97;;;31.98;;
56285;SDS011;42191;47.562;9.686;2023-04-23T10:20:40;33.05;;;31.00;;
56285;SDS011;42191;47.562;9.686;2023-04-23T10:23:07;31.67;;;29.77;;
56285;SDS011;42191;47.562;9.686;2023-04-23T10:25:35;32.50;;;30.50;;
56285;SDS011;42191;47.562;9.686;2023-04-23T10:28:05;31.08;;;29.27;;
56285;SDS011;42191;47.562;9.686;2023-04-23T10:30:33;31.65;;;29.75;;
56285;SDS011;42191;47.562;9.686;2023-04-23T10:33:00;30.98;;;29.10;;
56285;SDS011;42191;47.562;9.686;2023-04-23T10:35:28;31.45;;;29.55;;
56285;SDS011;42191;47.562;9.686;2023-04-23T10:37:54;33.08;;;31.17;;
56285;SDS011;42191;47.562;9.686;2023-04-23T10:40:23;31.52;;;29.63;;
56285;SDS011;42191;47.562;9.686;2023-04-23T10:42:55;30.70;;;28.75;;
56285;SDS011;42191;47.562;9.686;2023-04-23T10:45:22;31.90;;;30.00;;
56285;SDS011;42191;47.562;9.686;2023-04-23T10:47:48;31.55;;;29.55;;
56285;SDS011;42191;47.562;9.686;2023-04-23T10:53:17;31.80;;;29.90;;
56285;SDS011;42191;47.562;9.686;2023-04-23T10:55:46;29.58;;;27.83;;
56285;SDS011;42191;47.562;9.686;2023-04-23T10:58:12;31.17;;;29.17;;
56285;SDS011;42191;47.562;9.686;2023-04-23T11:03:25;32.03;;;30.13;;
56285;SDS011;42191;47.562;9.686;2023-04-23T11:05:55;30.02;;;28.23;;
56285;SDS011;42191;47.562;9.686;2023-04-23T11:08:24;29.92;;;28.13;;
56285;SDS011;42191;47.562;9.686;2023-04-23T11:10:56;30.42;;;28.63;;
56285;SDS011;42191;47.562;9.686;2023-04-23T11:13:24;31.40;;;29.50;;
56285;SDS011;42191;47.562;9.686;2023-04-23T11:19:01;30.05;;;28.25;;
56285;SDS011;42191;47.562;9.686;2023-04-23T11:24:25;31.38;;;29.52;;
56285;SDS011;42191;47.562;9.686;2023-04-23T11:26:56;30.15;;;28.35;;
56285;SDS011;42191;47.562;9.686;2023-04-23T11:29:24;31.02;;;29.05;;
56285;SDS011;42191;47.562;9.686;2023-04-23T11:31:52;30.42;;;28.63;;
56285;SDS011;42191;47.562;9.686;2023-04-23T11:34:19;31.50;;;29.60;;
56285;SDS011;42191;47.562;9.686;2023-04-23T11:36:47;31.25;;;29.35;;
56285;SDS011;42191;47.562;9.686;2023-04-23T11:39:15;30.73;;;28.90;;
56285;SDS011;42191;47.562;9.686;2023-04-23T11:41:43;30.52;;;28.73;;
56285;SDS011;42191;47.562;9.686;2023-04-23T11:44:14;30.90;;;29.02;;
56285;SDS011;42191;47.562;9.686;2023-04-23T11:46:40;32.65;;;30.65;;
56285;SDS011;42191;47.562;9.686;2023-04-23T11:49:06;31.98;;;30.08;;
56285;SDS011;42191;47.562;9.686;2023-04-23T11:51:40;29.75;;;27.85;;
56285;SDS011;42191;47.562;9.686;2023-04-23T11:54:10;30.17;;;28.27;;
56285;SDS011;42191;47.562;9.686;2023-04-23T11:56:37;28.52;;;26.83;;
56285;SDS011;42191;47.562;9.686;2023-04-23T11:59:04;28.63;;;26.77;;
56285;SDS011;42191;47.562;9.686;2023-04-23T12:01:42;30.30;;;28.50;;
56285;SDS011;42191;47.562;9.686;2023-04-23T12:04:11;31.60;;;29.70;;
56285;SDS011;42191;47.562;9.686;2023-04-23T12:06:43;30.77;;;28.90;;
56285;SDS011;42191;47.562;9.686;2023-04-23T12:09:10;31.10;;;29.30;;
56285;SDS011;42191;47.562;9.686;2023-04-23T12:11:38;31.30;;;29.48;;
56285;SDS011;42191;47.562;9.686;2023-04-23T12:14:05;30.65;;;28.83;;
56285;SDS011;42191;47.562;9.686;2023-04-23T12:16:36;30.80;;;29.00;;
56285;SDS011;42191;47.562;9.686;2023-04-23T12:19:02;31.40;;;29.50;;
56285;SDS011;42191;47.562;9.686;2023-04-23T12:21:31;30.88;;;28.98;;
56285;SDS011;42191;47.562;9.686;2023-04-23T12:23:58;32.72;;;30.80;;
56285;SDS011;42191;47.562;9.686;2023-04-23T12:26:27;28.90;;;27.17;;
56285;SDS011;42191;47.562;9.686;2023-04-23T12:28:53;29.42;;;27.67;;
56285;SDS011;42191;47.562;9.686;2023-04-23T12:31:26;31.10;;;29.30;;
56285;SDS011;42191;47.562;9.686;2023-04-23T12:33:56;32.05;;;30.05;;
56285;SDS011;42191;47.562;9.686;2023-04-23T12:36:26;30.73;;;28.73;;
56285;SDS011;42191;47.562;9.686;2023-04-23T12:38:55;30.98;;;28.95;;
56285;SDS011;42191;47.562;9.686;2023-04-23T12:42:07;32.30;;;30.30;;
56285;SDS011;42191;47.562;9.686;2023-04-23T12:44:34;30.15;;;28.35;;
56285;SDS011;42191;47.562;9.686;2023-04-23T12:47:08;30.92;;;29.02;;
56285;SDS011;42191;47.562;9.686;2023-04-23T12:49:37;30.75;;;28.85;;
56285;SDS011;42191;47.562;9.686;2023-04-23T12:52:04;29.02;;;27.33;;
56285;SDS011;42191;47.562;9.686;2023-04-23T12:54:32;31.90;;;30.00;;
56285;SDS011;42191;47.562;9.686;2023-04-23T12:57:01;31.33;;;29.45;;
56285;SDS011;42191;47.562;9.686;2023-04-23T12:59:28;31.17;;;29.38;;
56285;SDS011;42191;47.562;9.686;2023-04-23T13:01:55;31.00;;;29.15;;
56285;SDS011;42191;47.562;9.686;2023-04-23T13:04:25;31.50;;;29.58;;
56285;SDS011;42191;47.562;9.686;2023-04-23T13:06:56;31.15;;;29.35;;
56285;SDS011;42191;47.562;9.686;2023-04-23T13:09:22;30.80;;;29.00;;
56285;SDS011;42191;47.562;9.686;2023-04-23T13:11:50;31.38;;;29.33;;
56285;SDS011;42191;47.562;9.686;2023-04-23T13:14:16;31.50;;;29.60;;
56285;SDS011;42191;47.562;9.686;2023-04-23T13:16:42;30.13;;;28.33;;
56285;SDS011;42191;47.562;9.686;2023-04-23T13:19:08;29.13;;;27.40;;
56285;SDS011;42191;47.562;9.686;2023-04-23T13:21:34;28.83;;;26.92;;
56285;SDS011;42191;47.562;9.686;2023-04-23T13:24:00;27.02;;;25.38;;
56285;SDS011;42191;47.562;9.686;2023-04-23T13:26:27;27.10;;;25.42;;
56285;SDS011;42191;47.562;9.686;2023-04-23T13:28:56;26.65;;;25.05;;
56285;SDS011;42191;47.562;9.686;2023-04-23T13:31:22;25.10;;;23.63;;
56285;SDS011;42191;47.562;9.686;2023-04-23T13:33:49;25.77;;;24.27;;
56285;SDS011;42191;47.562;9.686;2023-04-23T13:36:15;24.73;;;23.23;;
56285;SDS011;42191;47.562;9.686;2023-04-23T13:38:43;27.10;;;25.30;;
56285;SDS011;42191;47.562;9.686;2023-04-23T13:41:09;25.67;;;24.17;;
56285;SDS011;42191;47.562;9.686;2023-04-23T13:43:35;25.80;;;23.77;;
56285;SDS011;42191;47.562;9.686;2023-04-23T13:46:01;24.92;;;23.42;;
56285;SDS011;42191;47.562;9.686;2023-04-23T13:48:27;24.08;;;22.67;;
56285;SDS011;42191;47.562;9.686;2023-04-23T13:50:58;24.65;;;23.05;;
56285;SDS011;42191;47.562;9.686;2023-04-23T13:53:25;25.52;;;24.02;;
56285;SDS011;42191;47.562;9.686;2023-04-23T13:55:52;25.55;;;24.05;;
56285;SDS011;42191;47.562;9.686;2023-04-23T13:58:19;27.00;;;25.40;;
56285;SDS011;42191;47.562;9.686;2023-04-23T14:00:46;25.40;;;23.90;;
56285;SDS011;42191;47.562;9.686;2023-04-23T14:03:12;25.92;;;24.33;;
56285;SDS011;42191;47.562;9.686;2023-04-23T14:05:38;26.75;;;25.15;;
56285;SDS011;42191;47.562;9.686;2023-04-23T14:08:04;27.40;;;25.80;;
56285;SDS011;42191;47.562;9.686;2023-04-23T14:10:31;27.92;;;26.23;;
56285;SDS011;42191;47.562;9.686;2023-04-23T14:12:58;27.00;;;25.20;;
56285;SDS011;42191;47.562;9.686;2023-04-23T14:15:24;27.17;;;25.58;;
56285;SDS011;42191;47.562;9.686;2023-04-23T14:17:50;25.70;;;24.10;;
56285;SDS011;42191;47.562;9.686;2023-04-23T14:20:16;25.58;;;24.08;;
56285;SDS011;42191;47.562;9.686;2023-04-23T14:22:47;25.30;;;23.80;;
56285;SDS011;42191;47.562;9.686;2023-04-23T14:25:21;26.15;;;24.55;;
56285;SDS011;42191;47.562;9.686;2023-04-23T14:27:49;26.50;;;24.90;;
56285;SDS011;42191;47.562;9.686;2023-04-23T14:30:19;26.63;;;25.02;;
56285;SDS011;42191;47.562;9.686;2023-04-23T14:32:45;27.38;;;25.67;;
56285;SDS011;42191;47.562;9.686;2023-04-23T14:35:12;26.23;;;24.63;;
56285;SDS011;42191;47.562;9.686;2023-04-23T14:37:39;26.92;;;25.25;;